createdAt,value
2024-01-16T00:02:20.601Z,100170.19
2024-01-16T00:04:50.076Z,100166.22
2024-01-16T00:07:18.188Z,100186.81
2024-01-16T00:09:46.859Z,100187.72
2024-01-16T00:12:15.293Z,100180.00
2024-01-16T00:14:43.392Z,100189.72
2024-01-16T00:17:12.696Z,100193.69
2024-01-16T00:19:40.785Z,100184.50
2024-01-16T00:22:10.296Z,100191.03
2024-01-16T00:24:38.354Z,100182.22
2024-01-16T00:27:09.825Z,100178.19
2024-01-16T00:29:40.226Z,100183.34
2024-01-16T00:32:08.397Z,100186.44
2024-01-16T00:34:36.584Z,100200.50
2024-01-16T00:37:04.703Z,100193.72
2024-01-16T00:39:34.476Z,100211.78
2024-01-16T00:42:03.248Z,100209.50
2024-01-16T00:44:31.299Z,100217.50
2024-01-16T00:46:59.363Z,100219.66
2024-01-16T00:49:27.428Z,100225.72
2024-01-16T00:51:55.705Z,100226.31
2024-01-16T00:54:23.746Z,100228.31
2024-01-16T00:56:56.580Z,100232.16
2024-01-16T00:59:24.655Z,100234.53
2024-01-16T01:01:52.926Z,100233.63
2024-01-16T01:04:21.018Z,100235.66
2024-01-16T01:06:49.067Z,100241.06
2024-01-16T01:09:17.096Z,100238.50
2024-01-16T01:11:45.473Z,100238.50
2024-01-16T01:14:15.186Z,100245.84
2024-01-16T01:16:43.319Z,100237.88
2024-01-16T01:19:11.455Z,100248.31
2024-01-16T01:21:39.515Z,100246.59
2024-01-16T01:24:07.542Z,100250.28
2024-01-16T01:26:35.641Z,100247.59
2024-01-16T01:29:03.836Z,100252.56
2024-01-16T01:31:33.385Z,100257.06
2024-01-16T01:34:01.582Z,100259.78
2024-01-16T01:36:29.678Z,100266.31
2024-01-16T01:38:57.695Z,100271.47
2024-01-16T01:41:25.800Z,100275.63
2024-01-16T01:43:53.881Z,100283.22
2024-01-16T01:46:22.063Z,100276.19
2024-01-16T01:48:52.518Z,100287.03
2024-01-16T01:51:21.164Z,100284.28
2024-01-16T01:53:51.428Z,100286.91
2024-01-16T01:56:20.596Z,100291.31
2024-01-16T01:58:50.703Z,100285.28
2024-01-16T02:01:20.287Z,100294.69
2024-01-16T02:03:49.259Z,100286.66
2024-01-16T02:06:18.912Z,100286.09
2024-01-16T02:08:47.598Z,100285.59
2024-01-16T02:11:16.162Z,100299.22
2024-01-16T02:13:44.277Z,100301.81
2024-01-16T02:16:21.177Z,100303.44
2024-01-16T02:18:49.256Z,100305.78
2024-01-16T02:21:21.568Z,100305.56
2024-01-16T02:23:51.306Z,100315.56
2024-01-16T02:26:20.982Z,100317.00
2024-01-16T02:28:49.058Z,100319.50
2024-01-16T02:31:19.144Z,100320.31
2024-01-16T02:33:47.370Z,100315.06
2024-01-16T02:36:15.456Z,100316.00
2024-01-16T02:38:46.396Z,100307.31
2024-01-16T02:41:19.210Z,100312.22
2024-01-16T02:43:47.691Z,100308.56
2024-01-16T02:46:15.785Z,100307.75
2024-01-16T02:48:44.784Z,100308.38
2024-01-16T02:51:13.068Z,100305.44
2024-01-16T02:53:41.289Z,100297.41
2024-01-16T02:56:10.877Z,100308.38
2024-01-16T02:58:40.559Z,100305.31
2024-01-16T03:01:08.737Z,100305.00
2024-01-16T03:03:37.274Z,100307.31
2024-01-16T03:06:05.874Z,100311.97
2024-01-16T03:08:34.029Z,100320.19
2024-01-16T03:11:02.177Z,100317.19
2024-01-16T03:13:30.206Z,100320.81
2024-01-16T03:15:59.615Z,100326.66
2024-01-16T03:18:27.869Z,100316.91
2024-01-16T03:20:56.040Z,100313.59
2024-01-16T03:23:24.123Z,100305.63
2024-01-16T03:25:52.182Z,100304.19
2024-01-16T03:28:20.216Z,100309.03
2024-01-16T03:30:48.618Z,100302.41
2024-01-16T03:33:18.318Z,100300.41
2024-01-16T03:35:46.630Z,100300.28
2024-01-16T03:38:14.756Z,100295.38
2024-01-16T03:40:42.836Z,100298.66
2024-01-16T03:43:10.882Z,100302.38
2024-01-16T03:45:38.920Z,100308.41
2024-01-16T03:48:07.943Z,100311.63
2024-01-16T03:50:37.636Z,100315.97
2024-01-16T03:53:06.217Z,100313.53
2024-01-16T03:55:34.487Z,100315.63
2024-01-16T03:58:02.540Z,100316.19
2024-01-16T04:00:30.749Z,100320.41
2024-01-16T04:02:58.836Z,100331.72
2024-01-16T04:05:26.992Z,100321.44
2024-01-16T04:07:56.460Z,100327.63
2024-01-16T04:10:24.527Z,100332.56
2024-01-16T04:12:52.558Z,100325.13
2024-01-16T04:15:23.509Z,100327.50
2024-01-16T04:17:51.986Z,100318.06
2024-01-16T04:20:20.176Z,100318.34
2024-01-16T04:22:48.266Z,100311.75
2024-01-16T04:25:17.819Z,100308.44
2024-01-16T04:27:45.873Z,100303.03
2024-01-16T04:30:15.001Z,100293.63
2024-01-16T04:32:43.380Z,100297.72
2024-01-16T04:35:11.834Z,100300.69
2024-01-16T04:37:39.959Z,100295.50
2024-01-16T04:40:08.724Z,100304.34
2024-01-16T04:42:38.145Z,100306.75
2024-01-16T04:45:07.391Z,100304.59
2024-01-16T04:47:35.556Z,100305.91
2024-01-16T04:50:04.971Z,100302.38
2024-01-16T04:52:33.223Z,100307.34
2024-01-16T04:55:01.329Z,100309.78
2024-01-16T04:57:29.413Z,100320.03
2024-01-16T04:59:58.914Z,100317.84
2024-01-16T05:02:27.028Z,100311.03
2024-01-16T05:04:55.145Z,100315.06
2024-01-16T05:07:25.926Z,100315.59
2024-01-16T05:09:54.890Z,100324.00
2024-01-16T05:12:23.843Z,100329.56
2024-01-16T05:14:51.971Z,100315.69
2024-01-16T05:17:21.517Z,100313.94
2024-01-16T05:19:49.605Z,100307.63
2024-01-16T05:22:17.683Z,100308.81
2024-01-16T05:24:45.895Z,100314.34
2024-01-16T05:27:14.042Z,100304.03
2024-01-16T05:29:44.689Z,100308.84
2024-01-16T05:32:13.556Z,100286.34
2024-01-16T05:34:43.215Z,100293.19
2024-01-16T05:37:11.805Z,100301.03
2024-01-16T05:39:39.815Z,100295.59
2024-01-16T05:42:07.914Z,100295.47
2024-01-16T05:44:36.075Z,100294.72
2024-01-16T05:47:04.792Z,100290.91
2024-01-16T05:49:33.032Z,100295.78
2024-01-16T05:52:02.534Z,100306.09
2024-01-16T05:54:30.710Z,100305.34
2024-01-16T05:56:58.787Z,100304.53
2024-01-16T05:59:26.930Z,100312.53
2024-01-16T06:01:54.969Z,100304.91
2024-01-16T06:04:23.079Z,100298.97
2024-01-16T06:06:51.351Z,100300.03
2024-01-16T06:09:20.853Z,100291.81
2024-01-16T06:11:49.268Z,100293.59
2024-01-16T06:14:22.694Z,100292.19
2024-01-16T06:16:52.137Z,100290.50
2024-01-16T06:19:20.279Z,100295.38
2024-01-16T06:21:48.390Z,100300.03
2024-01-16T06:24:16.462Z,100310.94
2024-01-16T06:26:45.925Z,100300.16
2024-01-16T06:29:21.606Z,100297.25
2024-01-16T06:31:56.601Z,100301.19
2024-01-16T06:34:24.744Z,100286.19
2024-01-16T06:36:52.870Z,100291.50
2024-01-16T06:39:20.928Z,100289.53
2024-01-16T06:41:50.703Z,100285.66
2024-01-16T06:44:18.842Z,100295.38
2024-01-16T06:46:46.980Z,100292.19
2024-01-16T06:49:15.172Z,100300.81
2024-01-16T06:51:43.295Z,100298.72
2024-01-16T06:54:11.360Z,100292.28
2024-01-16T06:56:39.454Z,100297.34
2024-01-16T06:59:11.270Z,100302.34
2024-01-16T07:01:40.229Z,100287.88
2024-01-16T07:04:08.297Z,100296.63
2024-01-16T07:06:36.378Z,100286.44
2024-01-16T07:09:06.425Z,100289.53
2024-01-16T07:11:34.594Z,100301.09
2024-01-16T07:14:02.765Z,100304.88
2024-01-16T07:16:32.207Z,100302.28
2024-01-16T07:19:00.830Z,100305.56
2024-01-16T07:21:29.140Z,100305.81
2024-01-16T07:23:57.751Z,100306.78
2024-01-16T07:26:26.408Z,100313.91
2024-01-16T07:28:54.540Z,100314.75
2024-01-16T07:31:22.593Z,100319.06
2024-01-16T07:33:52.179Z,100326.53
2024-01-16T07:36:20.346Z,100324.97
2024-01-16T07:38:49.158Z,100329.38
2024-01-16T07:41:17.284Z,100327.50
2024-01-16T07:43:48.272Z,100331.38
2024-01-16T07:46:18.941Z,100325.91
2024-01-16T07:48:47.249Z,100324.53
2024-01-16T07:51:16.784Z,100335.31
2024-01-16T07:53:44.946Z,100340.84
2024-01-16T07:56:13.601Z,100328.91
2024-01-16T07:58:41.705Z,100331.44
2024-01-16T08:01:09.815Z,100331.81
2024-01-16T08:03:37.987Z,100334.13
2024-01-16T08:06:07.329Z,100342.50
2024-01-16T08:08:36.925Z,100334.88
2024-01-16T08:11:05.253Z,100340.84
2024-01-16T08:13:33.316Z,100340.34
2024-01-16T08:16:01.423Z,100335.84
2024-01-16T08:18:29.600Z,100335.31
2024-01-16T08:20:57.794Z,100339.28
2024-01-16T08:23:25.993Z,100339.97
2024-01-16T08:25:55.438Z,100344.88
2024-01-16T08:28:25.306Z,100343.63
2024-01-16T08:30:53.432Z,100349.56
2024-01-16T08:33:28.099Z,100337.56
2024-01-16T08:36:02.415Z,100339.22
2024-01-16T08:38:30.573Z,100337.63
2024-01-16T08:41:00.180Z,100342.28
2024-01-16T08:43:28.319Z,100344.63
2024-01-16T08:45:56.805Z,100336.78
2024-01-16T08:48:25.096Z,100331.84
2024-01-16T08:50:53.363Z,100339.47
2024-01-16T08:53:21.437Z,100342.56
2024-01-16T08:55:49.793Z,100338.59
2024-01-16T08:58:19.207Z,100334.94
2024-01-16T09:00:47.264Z,100336.78
2024-01-16T09:03:15.320Z,100339.53
2024-01-16T09:05:44.584Z,100334.75
2024-01-16T09:08:13.959Z,100343.66
2024-01-16T09:10:42.357Z,100341.06
2024-01-16T09:13:10.394Z,100341.44
2024-01-16T09:15:40.858Z,100348.47
2024-01-16T09:18:09.057Z,100339.09
2024-01-16T09:20:37.805Z,100348.56
2024-01-16T09:23:05.935Z,100350.72
2024-01-16T09:25:33.972Z,100351.16
2024-01-16T09:28:01.995Z,100363.81
2024-01-16T09:30:30.114Z,100362.34
2024-01-16T09:32:59.600Z,100360.09
2024-01-16T09:35:27.763Z,100349.16
2024-01-16T09:37:55.824Z,100353.72
2024-01-16T09:40:23.874Z,100358.50
2024-01-16T09:42:52.037Z,100360.25
2024-01-16T09:45:23.031Z,100363.16
2024-01-16T09:47:52.945Z,100363.59
2024-01-16T09:50:23.260Z,100371.38
2024-01-16T09:52:51.388Z,100368.63
2024-01-16T09:55:19.646Z,100368.91
2024-01-16T09:57:48.254Z,100360.75
2024-01-16T10:00:17.707Z,100364.59
2024-01-16T10:02:45.863Z,100363.06
2024-01-16T10:05:15.123Z,100363.25
2024-01-16T10:07:46.133Z,100367.84
2024-01-16T10:10:15.342Z,100370.16
2024-01-16T10:12:46.251Z,100375.88
2024-01-16T10:15:16.630Z,100377.13
2024-01-16T10:17:45.235Z,100378.09
2024-01-16T10:20:15.562Z,100390.88
2024-01-16T10:22:54.730Z,100382.19
2024-01-16T10:25:23.791Z,100381.22
2024-01-16T10:27:51.888Z,100385.31
2024-01-16T10:30:23.993Z,100385.72
2024-01-16T10:32:52.291Z,100375.13
2024-01-16T10:35:22.072Z,100387.34
2024-01-16T10:37:53.524Z,100385.88
2024-01-16T10:40:24.579Z,100385.19
2024-01-16T10:43:01.531Z,100389.28
2024-01-16T10:45:30.099Z,100385.31
2024-01-16T10:48:04.659Z,100393.63
2024-01-16T10:50:33.384Z,100395.50
2024-01-16T10:53:06.237Z,100399.03
2024-01-16T10:55:44.837Z,100405.81
2024-01-16T10:58:14.631Z,100386.28
2024-01-16T11:00:44.818Z,100386.41
2024-01-16T11:03:18.554Z,100396.63
2024-01-16T11:05:47.069Z,100392.41
2024-01-16T11:08:18.368Z,100397.44
2024-01-16T11:10:47.395Z,100391.44
2024-01-16T11:13:15.832Z,100391.03
2024-01-16T11:15:44.640Z,100385.75
2024-01-16T11:18:13.107Z,100394.44
2024-01-16T11:21:01.764Z,100398.53
2024-01-16T11:23:33.517Z,100400.97
2024-01-16T11:26:01.572Z,100402.19
2024-01-16T11:28:31.925Z,100407.47
2024-01-16T11:31:00.515Z,100401.13
2024-01-16T11:33:47.597Z,100393.38
2024-01-16T11:36:55.636Z,100399.34
2024-01-16T11:39:26.754Z,100401.09
2024-01-16T11:41:56.370Z,100400.66
2024-01-16T11:44:44.598Z,100411.00
2024-01-16T11:47:18.596Z,100405.00
2024-01-16T11:49:46.767Z,100400.72
2024-01-16T11:52:15.106Z,100404.50
2024-01-16T11:54:44.904Z,100396.34
2024-01-16T11:57:38.980Z,100397.72
2024-01-16T12:00:14.094Z,100393.25
2024-01-16T12:02:55.424Z,100380.59
2024-01-16T12:05:23.714Z,100395.09
2024-01-16T12:07:53.747Z,100391.47
2024-01-16T12:10:24.477Z,100394.03
2024-01-16T12:12:53.560Z,100396.63
2024-01-16T12:15:22.369Z,100408.03
2024-01-16T12:17:57.861Z,100394.41
2024-01-16T12:20:27.231Z,100391.31
2024-01-16T12:22:57.124Z,100396.63
2024-01-16T12:25:59.379Z,100394.56
2024-01-16T12:28:28.053Z,100390.13
2024-01-16T12:31:01.586Z,100406.69
2024-01-16T12:33:30.396Z,100407.50
2024-01-16T12:36:04.180Z,100404.66
2024-01-16T12:38:32.801Z,100392.81
2024-01-16T12:41:03.780Z,100389.41
2024-01-16T12:43:33.949Z,100394.31
2024-01-16T12:46:02.146Z,100385.47
2024-01-16T12:48:30.512Z,100382.88
2024-01-16T12:51:02.351Z,100384.50
2024-01-16T12:53:30.931Z,100384.66
2024-01-16T12:56:04.880Z,100388.75
2024-01-16T12:58:36.752Z,100375.81
2024-01-16T13:01:34.239Z,100375.00
2024-01-16T13:04:07.536Z,100377.44
2024-01-16T13:06:35.991Z,100372.13
2024-01-16T13:09:12.031Z,100378.78
2024-01-16T13:11:53.952Z,100377.56
2024-01-16T13:14:23.304Z,100383.13
2024-01-16T13:16:51.722Z,100383.00
2024-01-16T13:19:20.882Z,100378.50
2024-01-16T13:21:49.535Z,100375.94
2024-01-16T13:24:18.690Z,100372.00
2024-01-16T13:26:46.938Z,100368.72
2024-01-16T13:29:16.927Z,100378.38
2024-01-16T13:31:45.437Z,100366.84
2024-01-16T13:34:14.178Z,100376.47
2024-01-16T13:36:54.720Z,100371.03
2024-01-16T13:39:33.682Z,100367.66
2024-01-16T13:42:01.714Z,100367.34
2024-01-16T13:44:31.184Z,100377.16
2024-01-16T13:47:07.016Z,100373.19
2024-01-16T13:49:38.764Z,100368.84
2024-01-16T13:52:07.505Z,100367.75
2024-01-16T13:54:39.468Z,100367.22
2024-01-16T13:57:09.416Z,100367.63
2024-01-16T13:59:40.114Z,100360.97
2024-01-16T14:02:09.653Z,100358.38
2024-01-16T14:04:38.148Z,100352.81
2024-01-16T14:09:38.074Z,100360.13
2024-01-16T14:12:09.843Z,100361.38
2024-01-16T14:14:40.529Z,100363.41
2024-01-16T14:17:08.627Z,100369.81
2024-01-16T14:19:37.051Z,100369.66
2024-01-16T14:22:05.620Z,100361.34
2024-01-16T14:24:33.774Z,100371.41
2024-01-16T14:27:01.789Z,100368.69
2024-01-16T14:29:30.718Z,100369.94
2024-01-16T14:32:00.260Z,100371.41
2024-01-16T14:34:29.173Z,100372.88
2024-01-16T14:36:57.257Z,100362.97
2024-01-16T14:39:27.666Z,100352.09
2024-01-16T14:41:56.269Z,100356.88
2024-01-16T14:44:24.441Z,100354.81
2024-01-16T14:46:55.405Z,100355.81
2024-01-16T14:49:25.055Z,100351.72
2024-01-16T14:51:53.273Z,100350.47
2024-01-16T14:54:21.383Z,100348.59
2024-01-16T14:56:49.967Z,100349.78
2024-01-16T14:59:19.297Z,100344.13
2024-01-16T15:01:47.652Z,100348.97
2024-01-16T15:04:16.020Z,100339.63
2024-01-16T15:06:45.736Z,100338.00
2024-01-16T15:09:14.511Z,100343.16
2024-01-16T15:11:44.095Z,100340.47
2024-01-16T15:14:14.032Z,100343.69
2024-01-16T15:16:42.158Z,100331.09
2024-01-16T15:19:10.289Z,100338.66
2024-01-16T15:21:40.761Z,100331.56
2024-01-16T15:24:10.397Z,100324.28
2024-01-16T15:26:38.560Z,100324.41
2024-01-16T15:29:07.627Z,100326.72
2024-01-16T15:31:35.667Z,100333.25
2024-01-16T15:34:03.766Z,100326.31
2024-01-16T15:36:31.821Z,100329.72
2024-01-16T15:38:59.893Z,100329.72
2024-01-16T15:41:29.369Z,100330.50
2024-01-16T15:43:58.238Z,100333.75
2024-01-16T15:46:29.887Z,100334.53
2024-01-16T15:48:58.299Z,100336.03
2024-01-16T15:51:26.321Z,100337.59
2024-01-16T15:53:54.419Z,100345.66
2024-01-16T15:56:22.503Z,100335.22
2024-01-16T15:58:51.921Z,100333.63
2024-01-16T16:01:19.986Z,100340.16
2024-01-16T16:03:48.228Z,100336.34
2024-01-16T16:06:16.359Z,100345.19
2024-01-16T16:08:44.573Z,100345.72
2024-01-16T16:11:12.830Z,100335.78
2024-01-16T16:13:40.838Z,100329.13
2024-01-16T16:16:10.264Z,100334.56
2024-01-16T16:18:38.747Z,100333.59
2024-01-16T16:21:07.053Z,100332.38
2024-01-16T16:23:35.106Z,100339.59
2024-01-16T16:26:03.166Z,100338.09
2024-01-16T16:28:31.214Z,100339.47
2024-01-16T16:30:59.321Z,100340.94
2024-01-16T16:33:28.888Z,100340.50
2024-01-16T16:35:56.978Z,100345.94
2024-01-16T16:38:25.117Z,100340.25
2024-01-16T16:40:53.153Z,100344.03
2024-01-16T16:43:21.168Z,100335.88
2024-01-16T16:45:50.405Z,100349.75
2024-01-16T16:48:18.583Z,100350.19
2024-01-16T16:50:48.133Z,100347.69
2024-01-16T16:53:16.261Z,100353.66
2024-01-16T16:55:44.321Z,100344.47
2024-01-16T16:58:13.430Z,100352.59
2024-01-16T17:00:43.774Z,100349.31
2024-01-16T17:03:11.999Z,100348.50
2024-01-16T17:05:40.800Z,100355.53
2024-01-16T17:08:12.260Z,100354.31
2024-01-16T17:10:40.238Z,100354.19
2024-01-16T17:13:08.271Z,100354.41
2024-01-16T17:15:36.329Z,100354.84
2024-01-16T17:18:05.133Z,100355.41
2024-01-16T17:20:33.410Z,100345.75
2024-01-16T17:23:01.496Z,100349.66
2024-01-16T17:25:31.294Z,100345.91
2024-01-16T17:27:59.523Z,100353.03
2024-01-16T17:30:27.585Z,100352.59
2024-01-16T17:32:55.705Z,100344.63
2024-01-16T17:35:25.213Z,100344.25
2024-01-16T17:37:53.786Z,100353.34
2024-01-16T17:40:21.851Z,100335.72
2024-01-16T17:42:51.285Z,100333.16
2024-01-16T17:45:19.638Z,100339.84
2024-01-16T17:47:48.198Z,100338.66
2024-01-16T17:50:16.405Z,100343.56
2024-01-16T17:52:44.473Z,100341.78
2024-01-16T17:55:13.010Z,100341.78
2024-01-16T17:57:42.064Z,100348.31
2024-01-16T18:00:12.899Z,100338.81
2024-01-16T18:02:41.562Z,100335.22
2024-01-16T18:05:11.534Z,100350.66
2024-01-16T18:07:39.757Z,100338.97
2024-01-16T18:10:10.264Z,100337.53
2024-01-16T18:12:39.257Z,100337.97
2024-01-16T18:15:09.832Z,100323.19
2024-01-16T18:17:39.399Z,100335.91
2024-01-16T18:20:11.065Z,100329.22
2024-01-16T18:22:39.308Z,100327.41
2024-01-16T18:25:09.861Z,100327.09
2024-01-16T18:27:38.302Z,100326.16
2024-01-16T18:30:07.974Z,100330.47
2024-01-16T18:32:36.242Z,100334.94
2024-01-16T18:35:09.728Z,100330.03
2024-01-16T18:37:38.518Z,100329.59
2024-01-16T18:40:10.041Z,100323.38
2024-01-16T18:42:38.151Z,100318.78
2024-01-16T18:45:09.488Z,100323.22
2024-01-16T18:47:38.305Z,100320.16
2024-01-16T18:50:10.983Z,100322.28
2024-01-16T18:52:41.220Z,100322.69
2024-01-16T18:55:13.495Z,100319.25
2024-01-16T18:57:41.945Z,100316.47
2024-01-16T19:00:15.270Z,100324.41
2024-01-16T19:02:44.272Z,100317.97
2024-01-16T19:05:14.425Z,100312.66
2024-01-16T19:07:42.875Z,100320.41
2024-01-16T19:10:13.884Z,100324.19
2024-01-16T19:12:43.628Z,100317.41
2024-01-16T19:15:16.368Z,100316.22
2024-01-16T19:17:44.553Z,100318.31
2024-01-16T19:20:14.398Z,100314.22
2024-01-16T19:22:42.995Z,100307.06
2024-01-16T19:25:12.841Z,100318.06
2024-01-16T19:27:42.003Z,100309.59
2024-01-16T19:30:15.195Z,100312.66
2024-01-16T19:32:44.105Z,100309.03
2024-01-16T19:35:13.386Z,100314.03
2024-01-16T19:37:42.227Z,100314.03
2024-01-16T19:40:13.576Z,100315.44
2024-01-16T19:42:42.493Z,100310.34
2024-01-16T19:45:12.569Z,100312.84
2024-01-16T19:47:43.397Z,100303.63
2024-01-16T19:50:22.700Z,100300.28
2024-01-16T19:52:52.851Z,100311.53
2024-01-16T19:55:23.107Z,100301.63
2024-01-16T19:57:51.801Z,100296.19
2024-01-16T20:00:20.913Z,100298.03
2024-01-16T20:02:49.185Z,100296.72
2024-01-16T20:05:18.820Z,100291.75
2024-01-16T20:07:47.212Z,100286.47
2024-01-16T20:10:16.860Z,100290.88
2024-01-16T20:12:46.638Z,100292.00
2024-01-16T20:15:16.500Z,100283.97
2024-01-16T20:17:45.527Z,100287.66
2024-01-16T20:20:15.089Z,100284.03
2024-01-16T20:22:45.130Z,100277.50
2024-01-16T20:25:14.559Z,100272.84
2024-01-16T20:27:42.745Z,100273.53
2024-01-16T20:30:12.453Z,100261.69
2024-01-16T20:32:42.536Z,100266.19
2024-01-16T20:35:11.063Z,100264.38
2024-01-16T20:37:39.146Z,100256.91
2024-01-16T20:40:11.206Z,100252.97
2024-01-16T20:42:39.671Z,100254.50
2024-01-16T20:45:10.134Z,100251.28
2024-01-16T20:47:39.360Z,100250.06
2024-01-16T20:50:10.366Z,100253.97
2024-01-16T20:52:38.472Z,100256.53
2024-01-16T20:55:09.290Z,100257.84
2024-01-16T20:57:37.727Z,100249.00
2024-01-16T21:00:14.362Z,100247.31
2024-01-16T21:02:43.422Z,100242.91
2024-01-16T21:05:12.172Z,100241.22
2024-01-16T21:07:40.705Z,100245.44
2024-01-16T21:10:11.047Z,100241.03
2024-01-16T21:12:39.325Z,100247.31
2024-01-16T21:15:08.453Z,100237.63
2024-01-16T21:17:36.656Z,100235.19
2024-01-16T21:20:07.190Z,100228.06
2024-01-16T21:22:36.992Z,100226.19
2024-01-16T21:25:07.123Z,100219.25
2024-01-16T21:27:38.449Z,100218.06
2024-01-16T21:30:09.417Z,100216.03
2024-01-16T21:32:38.027Z,100218.97
2024-01-16T21:35:07.761Z,100207.31
2024-01-16T21:37:35.854Z,100210.66
2024-01-16T21:40:06.325Z,100208.44
2024-01-16T21:42:35.808Z,100204.38
2024-01-16T21:45:06.660Z,100196.97
2024-01-16T21:47:34.963Z,100187.63
2024-01-16T21:50:06.980Z,100173.78
2024-01-16T21:52:35.913Z,100189.00
2024-01-16T21:55:04.034Z,100174.56
2024-01-16T21:57:33.412Z,100168.94
2024-01-16T22:00:03.825Z,100171.19
2024-01-16T22:02:35.202Z,100176.88
2024-01-16T22:05:03.365Z,100169.22
2024-01-16T22:07:31.481Z,100176.84
2024-01-16T22:09:59.792Z,100167.44
2024-01-16T22:12:27.858Z,100171.19
2024-01-16T22:14:57.285Z,100167.50
2024-01-16T22:17:30.033Z,100166.63
2024-01-16T22:19:59.780Z,100161.16
2024-01-16T22:22:27.869Z,100157.84
2024-01-16T22:24:55.908Z,100166.31
2024-01-16T22:27:23.973Z,100158.47
2024-01-16T22:29:52.081Z,100158.03
2024-01-16T22:32:22.176Z,100159.09
2024-01-16T22:34:50.207Z,100156.38
2024-01-16T22:37:20.804Z,100153.50
2024-01-16T22:39:48.879Z,100155.00
2024-01-16T22:42:18.418Z,100144.59
2024-01-16T22:44:47.888Z,100128.50
2024-01-16T22:47:16.113Z,100136.13
2024-01-16T22:49:44.268Z,100139.81
2024-01-16T22:52:12.326Z,100141.25
2024-01-16T22:54:41.994Z,100132.75
2024-01-16T22:57:10.076Z,100130.97
2024-01-16T22:59:38.207Z,100125.59
2024-01-16T23:02:07.297Z,100119.81
2024-01-16T23:04:35.510Z,100106.13
2024-01-16T23:07:03.656Z,100102.50
2024-01-16T23:09:34.152Z,100104.28
2024-01-16T23:12:03.845Z,100101.22
2024-01-16T23:14:32.231Z,100102.00
2024-01-16T23:17:00.260Z,100094.38
2024-01-16T23:19:28.364Z,100097.19
2024-01-16T23:21:56.411Z,100078.81
2024-01-16T23:24:24.479Z,100078.06
2024-01-16T23:26:52.604Z,100071.66
2024-01-16T23:29:22.219Z,100060.41
2024-01-16T23:31:50.280Z,100066.91
2024-01-16T23:34:19.226Z,100070.47
2024-01-16T23:36:47.369Z,100067.91
2024-01-16T23:39:16.755Z,100057.44
2024-01-16T23:41:46.154Z,100038.94
2024-01-16T23:44:14.564Z,100041.50
2024-01-16T23:46:44.133Z,100023.28
2024-01-16T23:49:12.212Z,100018.63
2024-01-16T23:51:40.245Z,100021.22
2024-01-16T23:54:08.365Z,100019.31
2024-01-16T23:56:36.797Z,100014.56
2024-01-16T23:59:04.840Z,100004.41
